Time;durP1;ratioP1;P1;durP2;ratioP2;P2;SDS_P1;SDS_P2;PMS_P1;PMS_P2;Temp;Humidity;BMP_temperature;BMP_pressure;BME280_temperature;BME280_humidity;BME280_pressure;Samples;Min_cycle;Max_cycle;Signal;HPM_P1;HPM_P2
2023/10/10 00:01:42;;;;;;;10.80;8.10;;;18.10;99.90;;;;;;4782388;29;20456;-85
2023/10/10 00:04:35;;;;;;;13.03;8.13;;;18.20;99.90;;;;;;4779309;29;20489;-88
2023/10/10 00:07:59;;;;;;;11.33;7.70;;;18.20;99.90;;;;;;4787757;29;20475;-86
2023/10/10 00:14:30;;;;;;;10.60;8.97;;;18.00;99.90;;;;;;4774169;29;20437;-85
2023/10/10 00:17:46;;;;;;;;;;;;;;;;;;;;;
2023/10/10 00:21:18;;;;;;;;;;;;;;;;;;;;;
2023/10/10 00:24:20;;;;;;;9.33;8.30;;;18.10;99.90;;;;;;4864935;29;20536;-84
2023/10/10 00:28:37;;;;;;;;;;;;;;;;;;;;;
2023/10/10 00:32:16;;;;;;;10.47;9.07;;;17.90;99.90;;;;;;4858885;29;20507;-85
2023/10/10 00:36:00;;;;;;;10.97;7.77;;;17.70;99.90;;;;;;4839404;29;20477;-85
2023/10/10 00:42:36;;;;;;;10.77;8.47;;;17.70;99.90;;;;;;4820376;29;20459;-87
2023/10/10 00:45:37;;;;;;;12.13;8.83;;;17.70;99.90;;;;;;4867388;29;20485;-85
2023/10/10 00:54:09;;;;;;;11.23;8.00;;;17.60;99.90;;;;;;4973940;28;20489;-85
2023/10/10 01:00:35;;;;;;;9.43;8.50;;;17.60;99.90;;;;;;4991138;28;20482;-85
2023/10/10 01:03:50;;;;;;;9.03;7.57;;;17.60;99.90;;;;;;4902668;29;20524;-86
2023/10/10 01:06:58;;;;;;;8.23;7.37;;;17.60;99.90;;;;;;4866379;29;21309;-89
2023/10/10 01:13:30;;;;;;;8.50;7.17;;;17.60;99.90;;;;;;4872870;29;20643;-85
2023/10/10 01:16:57;;;;;;;;;;;;;;;;;;;;;
2023/10/10 01:20:25;;;;;;;12.83;8.23;;;17.90;99.90;;;;;;4883880;29;20544;-86
2023/10/10 01:23:33;;;;;;;9.63;8.17;;;17.90;99.90;;;;;;4872813;29;20531;-87
2023/10/10 01:32:30;;;;;;;11.10;7.80;;;17.80;99.90;;;;;;4857260;29;20492;-86
2023/10/10 01:35:41;;;;;;;9.57;7.17;;;17.70;99.90;;;;;;4821385;29;20490;-86
2023/10/10 01:46:20;;;;;;;8.13;6.33;;;17.40;99.90;;;;;;4941829;29;20555;-88
2023/10/10 01:49:06;;;;;;;12.53;8.03;;;17.10;99.90;;;;;;4921483;29;20470;-88
2023/10/10 01:52:55;;;;;;;;;;;;;;;;;;;;;
2023/10/10 01:56:24;;;;;;;8.33;6.27;;;16.80;99.90;;;;;;4918012;29;20435;-87
2023/10/10 02:02:10;;;;;;;7.17;6.30;;;17.10;99.90;;;;;;4916394;29;20478;-87
2023/10/10 02:04:59;;;;;;;9.77;7.00;;;17.30;99.90;;;;;;4934100;28;20491;-87
2023/10/10 02:11:31;;;;;;;11.93;6.97;;;17.20;99.90;;;;;;4953939;28;20451;-87
2023/10/10 02:14:33;;;;;;;10.70;7.23;;;17.00;99.90;;;;;;4977573;28;20471;-87
2023/10/10 02:17:39;;;;;;;10.03;6.23;;;16.90;99.90;;;;;;4966848;28;20431;-84
2023/10/10 02:20:55;;;;;;;8.03;6.67;;;16.80;99.90;;;;;;4941464;29;20431;-88
2023/10/10 02:27:13;;;;;;;9.70;6.83;;;16.70;99.90;;;;;;4986278;28;20442;-88
2023/10/10 02:30:12;;;;;;;10.60;6.57;;;16.70;99.90;;;;;;4972894;28;20496;-87
2023/10/10 02:33:31;;;;;;;7.27;5.67;;;16.80;99.90;;;;;;4977710;28;20452;-85
2023/10/10 02:37:05;;;;;;;6.73;6.00;;;16.70;99.90;;;;;;4980281;28;20476;-86
2023/10/10 02:40:15;;;;;;;9.97;6.90;;;16.60;99.90;;;;;;4984705;28;20487;-86
2023/10/10 02:43:33;;;;;;;9.10;6.90;;;16.70;99.90;;;;;;4948538;28;20549;-87
2023/10/10 02:46:59;;;;;;;7.57;6.77;;;17.20;99.90;;;;;;4958740;28;20447;-85
2023/10/10 02:50:13;;;;;;;8.50;6.30;;;16.80;99.90;;;;;;4948792;28;20511;-85
2023/10/10 02:53:32;;;;;;;9.70;6.73;;;16.70;99.90;;;;;;4957264;28;20459;-87
2023/10/10 03:06:28;;;;;;;8.30;6.63;;;16.50;99.90;;;;;;4888503;29;20452;-86
2023/10/10 03:16:52;;;;;;;7.13;5.97;;;16.70;99.90;;;;;;4963753;28;20436;-87
2023/10/10 03:19:42;;;;;;;8.57;5.90;;;16.10;99.90;;;;;;4961950;28;20542;-87
2023/10/10 03:25:25;;;;;;;8.53;5.37;;;16.20;99.90;;;;;;4992915;28;20571;-86
2023/10/10 03:28:18;;;;;;;9.07;6.60;;;16.20;99.90;;;;;;4982784;28;20532;-85
2023/10/10 03:34:34;;;;;;;8.30;6.43;;;16.10;99.90;;;;;;4994259;28;20511;-85
2023/10/10 03:38:04;;;;;;;;;;;;;;;;;;;;;
2023/10/10 05:25:13;;;;;;;9.40;7.03;;;15.60;99.90;;;;;;4908236;29;20468;-87
2023/10/10 05:28:33;;;;;;;11.13;7.67;;;15.80;99.90;;;;;;4934321;28;20479;-88
2023/10/10 05:31:38;;;;;;;11.23;7.80;;;15.80;99.90;;;;;;4977720;28;20505;-88
2023/10/10 05:34:43;;;;;;;10.70;7.20;;;15.80;99.90;;;;;;4976970;28;20475;-89
2023/10/10 05:37:41;;;;;;;11.80;7.37;;;15.90;99.90;;;;;;4938404;29;20465;-86
2023/10/10 05:51:15;;;;;;;8.23;6.20;;;15.60;99.90;;;;;;4941440;29;20474;-86
2023/10/10 05:54:43;;;;;;;8.23;6.30;;;15.60;99.90;;;;;;4854857;29;20586;-86
2023/10/10 05:58:22;;;;;;;;;;;;;;;;;;;;;
2023/10/10 06:01:31;;;;;;;8.53;6.20;;;16.10;99.90;;;;;;4870049;29;20433;-88
2023/10/10 06:04:51;;;;;;;9.53;6.60;;;16.10;99.90;;;;;;4880048;29;20544;-86
2023/10/10 06:07:59;;;;;;;8.13;6.43;;;16.00;99.90;;;;;;4916194;29;20455;-86
2023/10/10 06:11:05;;;;;;;11.00;7.57;;;15.80;99.90;;;;;;4902822;29;20931;-86
2023/10/10 06:14:21;;;;;;;9.83;6.70;;;15.70;99.90;;;;;;4891017;29;20465;-86
2023/10/10 06:17:19;;;;;;;13.27;6.70;;;15.50;99.90;;;;;;4902826;29;21270;-87
2023/10/10 06:20:34;;;;;;;9.70;7.17;;;15.40;99.90;;;;;;4909530;29;20475;-85
2023/10/10 06:23:52;;;;;;;;;;;;;;;;;;;;;
2023/10/10 06:27:46;;;;;;;;;;;;;;;;;;;;;
2023/10/10 06:38:36;;;;;;;9.33;6.63;;;15.70;99.90;;;;;;4910186;29;20399;-87
2023/10/10 06:45:31;;;;;;;;;;;;;;;;;;;;;
2023/10/10 06:49:16;;;;;;;7.60;6.07;;;15.80;99.90;;;;;;4903226;29;20443;-87
2023/10/10 06:52:27;;;;;;;9.13;7.13;;;16.10;99.90;;;;;;4902414;29;20545;-88
2023/10/10 06:56:17;;;;;;;11.63;6.50;;;16.00;99.90;;;;;;4899415;29;20932;-86
2023/10/10 06:59:30;;;;;;;7.10;5.80;;;16.10;99.90;;;;;;4878634;29;20475;-87
2023/10/10 07:02:39;;;;;;;9.63;6.33;;;16.40;99.90;;;;;;4917089;29;20453;-86
2023/10/10 07:05:26;;;;;;;9.30;6.37;;;16.70;99.90;;;;;;4914587;29;20563;-87
2023/10/10 07:09:14;;;;;;;12.10;6.53;;;16.60;99.90;;;;;;4889242;29;20995;-86
2023/10/10 07:12:14;;;;;;;9.63;5.83;;;16.80;99.90;;;;;;4849891;29;20465;-86
2023/10/10 07:15:14;;;;;;;9.70;6.87;;;17.30;99.90;;;;;;4884131;29;20474;-87
2023/10/10 07:18:22;;;;;;;9.70;6.00;;;17.70;99.90;;;;;;4919818;29;20467;-86
2023/10/10 07:21:36;;;;;;;8.33;5.77;;;17.90;99.90;;;;;;4883841;29;20917;-86
2023/10/10 07:24:40;;;;;;;10.00;7.17;;;18.10;99.20;;;;;;4872676;29;20962;-86
2023/10/10 07:28:05;;;;;;;9.77;6.60;;;17.90;99.30;;;;;;4883637;29;20480;-86
2023/10/10 07:31:22;;;;;;;13.10;6.53;;;17.80;99.50;;;;;;4827108;29;20999;-85
2023/10/10 07:34:15;;;;;;;9.87;6.17;;;18.10;99.50;;;;;;4830927;29;20549;-86
2023/10/10 07:37:52;;;;;;;8.93;6.30;;;18.10;99.00;;;;;;4827203;29;20797;-86
2023/10/10 07:40:42;;;;;;;8.00;6.27;;;17.60;99.40;;;;;;4829302;29;20446;-86
2023/10/10 07:48:38;;;;;;;9.00;5.47;;;17.70;99.90;;;;;;4869092;29;20515;-88
2023/10/10 07:51:07;;;;;;;7.77;5.60;;;17.60;99.90;;;;;;4902536;29;20460;-86
2023/10/10 07:58:06;;;;;;;8.43;6.60;;;17.50;99.90;;;;;;4852852;29;20511;-87
2023/10/10 08:01:31;;;;;;;10.80;6.30;;;17.40;99.90;;;;;;4903892;29;20423;-89
2023/10/10 08:04:30;;;;;;;9.97;6.97;;;17.40;99.90;;;;;;4916088;29;20443;-86
2023/10/10 08:10:49;;;;;;;9.47;6.20;;;17.50;99.90;;;;;;4866694;29;20466;-86
2023/10/10 08:14:23;;;;;;;9.47;6.07;;;17.30;99.90;;;;;;4894433;29;20455;-85
2023/10/10 08:21:24;;;;;;;10.70;6.07;;;17.50;99.90;;;;;;4861764;29;20482;-85
2023/10/10 08:24:43;;;;;;;;;;;;;;;;;;;;;
2023/10/10 08:27:49;;;;;;;7.60;6.50;;;17.60;99.90;;;;;;4902843;29;20538;-88
2023/10/10 08:31:13;;;;;;;9.20;6.20;;;17.90;99.90;;;;;;4887172;29;20483;-86
2023/10/10 08:37:37;;;;;;;9.90;6.20;;;18.10;99.90;;;;;;4904645;29;20427;-83
2023/10/10 08:41:14;;;;;;;9.37;5.93;;;18.10;99.90;;;;;;4916570;29;20448;-89
2023/10/10 08:44:17;;;;;;;7.87;6.23;;;18.20;99.90;;;;;;4930293;29;20430;-88
2023/10/10 08:47:32;;;;;;;6.80;5.73;;;18.70;99.90;;;;;;4907611;29;20483;-87
2023/10/10 09:05:16;;;;;;;9.50;5.40;;;19.00;99.80;;;;;;4954696;29;20437;-85
2023/10/10 09:11:33;;;;;;;5.93;5.37;;;19.00;99.20;;;;;;4928305;29;20481;-86
2023/10/10 09:14:43;;;;;;;9.73;5.93;;;19.10;99.50;;;;;;4917197;29;20461;-87
2023/10/10 09:18:47;;;;;;;;;;;;;;;;;;;;;
2023/10/10 09:22:42;;;;;;;7.17;5.47;;;19.40;98.40;;;;;;4876543;29;20524;-87
2023/10/10 09:34:48;;;;;;;8.00;5.43;;;19.80;98.10;;;;;;4962356;28;20481;-87
2023/10/10 09:37:52;;;;;;;6.80;6.00;;;20.20;97.50;;;;;;4944273;28;20464;-84
2023/10/10 09:40:56;;;;;;;8.17;4.90;;;20.50;96.60;;;;;;4932515;28;20452;-86
2023/10/10 09:48:06;;;;;;;7.50;5.63;;;21.30;95.20;;;;;;4845240;29;21075;-87
2023/10/10 10:02:16;;;;;;;11.10;5.20;;;21.60;93.70;;;;;;4799969;29;20460;-86
2023/10/10 10:09:11;;;;;;;7.20;5.27;;;21.40;94.70;;;;;;4840291;29;20468;-87
2023/10/10 10:12:36;;;;;;;5.90;5.17;;;21.40;94.40;;;;;;4837188;29;20977;-83
2023/10/10 10:19:20;;;;;;;6.10;5.10;;;21.40;94.70;;;;;;4901392;28;20510;-83
2023/10/10 10:22:44;;;;;;;8.03;5.40;;;21.80;94.40;;;;;;4932126;28;20460;-85
2023/10/10 10:26:21;;;;;;;6.97;5.53;;;21.60;94.30;;;;;;4933567;28;20648;-84
2023/10/10 10:29:42;;;;;;;7.10;5.50;;;21.60;94.70;;;;;;4929289;28;20483;-83
2023/10/10 10:32:45;;;;;;;7.83;5.47;;;21.50;94.80;;;;;;4904905;28;20491;-86
2023/10/10 10:36:26;;;;;;;7.83;5.00;;;21.60;94.90;;;;;;4950718;28;20437;-86
2023/10/10 10:43:42;;;;;;;9.30;5.90;;;21.70;94.50;;;;;;4946171;28;20521;-85
2023/10/10 10:47:09;;;;;;;7.90;5.13;;;21.80;94.20;;;;;;4915446;28;20493;-82
2023/10/10 11:14:51;;;;;;;6.27;4.87;;;22.30;93.10;;;;;;4944496;28;21698;-84
2023/10/10 11:18:34;;;;;;;6.20;4.60;;;22.50;92.70;;;;;;4960046;28;20552;-85
2023/10/10 11:22:16;;;;;;;;;;;;;;;;;;;;;
2023/10/10 11:25:51;;;;;;;;;;;;;;;;;;;;;
2023/10/10 12:07:24;;;;;;;6.10;3.73;;;23.40;90.10;;;;;;4842664;29;20512;-85
2023/10/10 12:11:11;;;;;;;5.00;4.30;;;23.50;89.80;;;;;;4817450;29;20462;-87
2023/10/10 12:14:43;;;;;;;5.97;3.97;;;23.80;88.50;;;;;;4839407;29;20472;-87
2023/10/10 12:20:55;;;;;;;7.07;4.40;;;24.00;86.50;;;;;;1035836;26;20754;-86
2023/10/10 12:27:29;;;;;;;5.47;3.60;;;23.90;86.50;;;;;;4946128;28;21131;-86
2023/10/10 12:30:44;;;;;;;5.77;4.30;;;24.30;85.10;;;;;;4915767;29;20466;-86
2023/10/10 12:33:53;;;;;;;;;;;;;;;;;;;;;
2023/10/10 12:37:09;;;;;;;;;;;;;;;;;;;;;
2023/10/10 12:40:09;;;;;;;5.40;3.80;;;25.40;79.80;;;;;;4914799;29;20492;-88
2023/10/10 12:47:17;;;;;;;5.03;3.90;;;26.10;76.30;;;;;;4890256;29;20489;-87
2023/10/10 13:01:27;;;;;;;5.50;3.87;;;26.90;71.30;;;;;;4908326;28;20483;-87
2023/10/10 13:04:32;;;;;;;6.47;4.13;;;26.90;70.70;;;;;;4897835;29;20433;-85
2023/10/10 13:07:35;;;;;;;6.70;4.40;;;26.90;70.00;;;;;;4867358;29;20497;-86
2023/10/10 13:11:30;;;;;;;;;;;;;;;;;;;;;
2023/10/10 13:25:28;;;;;;;6.07;4.10;;;27.70;63.30;;;;;;4842963;29;20452;-86
2023/10/10 13:28:48;;;;;;;5.90;3.90;;;28.00;62.20;;;;;;4813876;29;20483;-88
2023/10/10 13:36:18;;;;;;;;;;;;;;;;;;;;;
2023/10/10 13:43:49;;;;;;;5.97;3.83;;;27.60;60.60;;;;;;4743072;30;20455;-84
2023/10/10 13:47:25;;;;;;;5.60;3.97;;;27.10;62.50;;;;;;4673807;30;20559;-85
2023/10/10 13:54:07;;;;;;;4.30;3.10;;;26.60;59.60;;;;;;4722570;30;20470;-85
2023/10/10 13:57:31;;;;;;;6.10;3.43;;;26.60;56.10;;;;;;4704870;30;20473;-85
2023/10/10 14:01:26;;;;;;;6.23;3.40;;;26.90;53.50;;;;;;4776142;29;20644;-82
2023/10/10 14:05:15;;;;;;;6.80;4.07;;;26.60;54.40;;;;;;4747212;30;20528;-84
2023/10/10 14:09:03;;;;;;;;;;;;;;;;;;;;;
2023/10/10 14:12:08;;;;;;;5.57;3.60;;;26.70;53.40;;;;;;4874645;29;20536;-86
2023/10/10 14:15:24;;;;;;;5.07;3.40;;;26.70;53.00;;;;;;4853464;29;20623;-84
2023/10/10 14:18:23;;;;;;;7.33;3.93;;;26.20;53.60;;;;;;4862136;29;20495;-86
2023/10/10 14:53:29;;;;;;;4.93;3.57;;;25.50;52.90;;;;;;4965369;28;21315;-85
2023/10/10 15:08:45;;;;;;;7.20;4.30;;;25.30;54.00;;;;;;4895243;29;20443;-84
2023/10/10 15:12:13;;;;;;;5.33;3.83;;;25.20;54.40;;;;;;4816590;29;20490;-83
2023/10/10 15:15:16;;;;;;;6.20;4.27;;;25.50;54.10;;;;;;4884157;29;22627;-85
2023/10/10 15:17:44;;;;;;;5.57;3.80;;;25.50;53.70;;;;;;4914984;29;20465;-86
2023/10/10 15:20:12;;;;;;;5.73;4.20;;;25.60;53.90;;;;;;4907841;29;20482;-84
2023/10/10 15:22:41;;;;;;;6.87;4.57;;;25.90;53.70;;;;;;4896564;29;20530;-84
2023/10/10 15:25:10;;;;;;;5.33;4.47;;;25.70;53.90;;;;;;4897496;29;20554;-83
2023/10/10 15:27:41;;;;;;;6.20;4.27;;;25.70;54.10;;;;;;4915200;28;20490;-84
2023/10/10 15:30:10;;;;;;;5.40;4.10;;;25.90;53.80;;;;;;4911976;29;20466;-87
2023/10/10 15:32:46;;;;;;;6.70;4.37;;;25.70;54.40;;;;;;4919902;29;20485;-87
2023/10/10 15:35:19;;;;;;;5.23;3.80;;;25.40;55.30;;;;;;4977128;28;20495;-88
2023/10/10 15:37:47;;;;;;;6.03;4.43;;;25.20;55.60;;;;;;4968030;28;20540;-87
2023/10/10 15:40:21;;;;;;;7.13;5.10;;;25.20;55.80;;;;;;4968075;28;20526;-85
2023/10/10 15:42:51;;;;;;;4.90;3.73;;;25.50;55.50;;;;;;4953306;28;21455;-84
2023/10/10 15:45:22;;;;;;;6.10;3.90;;;25.40;55.90;;;;;;4954759;28;20454;-86
2023/10/10 15:47:54;;;;;;;5.00;3.60;;;25.20;56.10;;;;;;4962174;28;20491;-85
2023/10/10 15:50:47;;;;;;;;;;;;;;;;;;;;;
2023/10/10 15:53:26;;;;;;;5.10;3.63;;;25.30;56.20;;;;;;4954075;28;20457;-86
2023/10/10 15:56:20;;;;;;;7.10;4.50;;;25.70;55.80;;;;;;4935465;29;20461;-83
2023/10/10 15:59:48;;;;;;;15.00;5.87;;;25.70;55.80;;;;;;4850089;29;20600;-85
2023/10/10 16:02:56;;;;;;;5.23;4.00;;;25.50;56.70;;;;;;4934926;29;20441;-82
2023/10/10 16:05:55;;;;;;;7.13;4.63;;;25.30;57.70;;;;;;4936289;29;20506;-86
2023/10/10 16:09:29;;;;;;;9.10;5.40;;;25.20;57.40;;;;;;4915392;29;20529;-87
2023/10/10 16:13:18;;;;;;;5.37;4.00;;;25.20;57.60;;;;;;4932459;29;20457;-83
2023/10/10 16:20:27;;;;;;;6.20;3.40;;;25.00;58.50;;;;;;4925155;29;20477;-85
2023/10/10 16:23:57;;;;;;;5.87;4.10;;;24.80;58.50;;;;;;4937205;29;20461;-85
2023/10/10 16:27:37;;;;;;;8.60;4.43;;;24.60;59.00;;;;;;4934778;29;20475;-85
2023/10/10 16:46:14;;;;;;;10.73;5.90;;;24.20;60.70;;;;;;4901681;29;20429;-84
2023/10/10 16:56:43;;;;;;;9.10;6.20;;;23.70;64.30;;;;;;4844319;29;20465;-85
2023/10/10 17:04:00;;;;;;;9.43;6.00;;;23.40;66.20;;;;;;4762991;30;20475;-85
2023/10/10 17:17:24;;;;;;;9.73;6.53;;;22.90;69.20;;;;;;4940264;29;20454;-87
2023/10/10 17:20:24;;;;;;;11.10;7.23;;;22.90;69.90;;;;;;4958735;28;20503;-87
2023/10/10 17:23:51;;;;;;;8.77;6.70;;;22.80;69.90;;;;;;4955647;28;20451;-84
2023/10/10 17:27:02;;;;;;;10.87;6.00;;;22.70;70.20;;;;;;4896162;28;20487;-85
2023/10/10 17:30:33;;;;;;;8.50;5.60;;;22.70;71.90;;;;;;4949517;28;20476;-85
2023/10/10 17:33:43;;;;;;;11.70;9.70;;;22.60;71.40;;;;;;4974184;28;20523;-84
2023/10/10 17:36:57;;;;;;;;;;;;;;;;;;;;;
2023/10/10 17:48:05;;;;;;;9.27;6.40;;;22.40;74.20;;;;;;4827703;29;20542;-85
2023/10/10 17:55:17;;;;;;;7.37;5.67;;;22.80;81.80;;;;;;4804350;29;20469;-86
2023/10/10 17:58:39;;;;;;;7.93;6.40;;;22.40;81.50;;;;;;4737650;30;20463;-85
2023/10/10 18:01:55;;;;;;;12.27;7.60;;;22.20;82.80;;;;;;4784719;29;20448;-85
2023/10/10 18:04:56;;;;;;;12.80;8.83;;;22.00;82.00;;;;;;4795257;29;20537;-85
2023/10/10 18:19:40;;;;;;;8.67;6.80;;;21.70;85.00;;;;;;4899523;29;20431;-87
2023/10/10 18:23:01;;;;;;;9.73;5.87;;;21.70;86.60;;;;;;4783362;30;20507;-89
2023/10/10 18:29:55;;;;;;;9.30;5.90;;;21.80;91.20;;;;;;4899383;29;20458;-87
2023/10/10 18:33:10;;;;;;;6.23;4.80;;;21.80;92.50;;;;;;4901251;29;20434;-87
2023/10/10 18:36:46;;;;;;;6.80;4.50;;;22.00;93.30;;;;;;4953337;28;20472;-84
2023/10/10 18:40:36;;;;;;;;;;;;;;;;;;;;;
2023/10/10 18:44:17;;;;;;;;;;;;;;;;;;;;;
2023/10/10 18:48:01;;;;;;;;;;;;;;;;;;;;;
2023/10/10 18:55:14;;;;;;;8.47;5.80;;;21.90;92.50;;;;;;4949332;28;20880;-85
2023/10/10 19:06:32;;;;;;;9.13;4.47;;;21.90;91.50;;;;;;4904301;29;20482;-86
2023/10/10 19:09:50;;;;;;;6.27;4.93;;;21.80;90.70;;;;;;4900981;28;21035;-85
2023/10/10 19:13:10;;;;;;;6.27;5.40;;;21.60;91.60;;;;;;4937882;29;20474;-86
2023/10/10 19:16:34;;;;;;;7.03;4.80;;;21.60;92.10;;;;;;4898790;29;20528;-88
2023/10/10 19:20:22;;;;;;;6.53;5.10;;;21.90;92.20;;;;;;4855710;29;20881;-87
2023/10/10 19:23:29;;;;;;;10.70;6.57;;;21.90;92.20;;;;;;4876109;29;20448;-88
2023/10/10 19:34:42;;;;;;;;;;;;;;;;;;;;;
2023/10/10 19:38:18;;;;;;;;;;;;;;;;;;;;;
2023/10/10 19:41:57;;;;;;;5.83;5.10;;;21.60;92.80;;;;;;4897834;29;20999;-86
2023/10/10 19:45:23;;;;;;;;;;;;;;;;;;;;;
2023/10/10 20:10:00;;;;;;;7.13;5.30;;;21.00;94.90;;;;;;4939147;28;20575;-89
2023/10/10 20:16:26;;;;;;;7.00;5.87;;;20.90;95.00;;;;;;4925757;28;20457;-87
2023/10/10 20:19:46;;;;;;;6.77;5.40;;;21.00;95.00;;;;;;4950140;28;20519;-85
2023/10/10 20:23:27;;;;;;;;;;;;;;;;;;;;;
2023/10/10 20:30:45;;;;;;;5.50;4.00;;;20.60;96.20;;;;;;4903186;29;20506;-86
2023/10/10 20:34:50;;;;;;;6.97;4.70;;;20.50;96.40;;;;;;4878217;29;20463;-85
2023/10/10 20:41:52;;;;;;;;;;;;;;;;;;;;;
2023/10/10 20:45:10;;;;;;;7.20;5.30;;;20.30;96.80;;;;;;4904038;29;20499;-84
2023/10/10 20:48:34;;;;;;;6.73;5.30;;;20.30;97.00;;;;;;4904691;28;21084;-87
2023/10/10 20:52:12;;;;;;;6.30;4.97;;;20.30;96.70;;;;;;4963056;28;20462;-85
2023/10/10 20:56:00;;;;;;;9.33;4.40;;;20.30;96.60;;;;;;4895709;29;20528;-83
2023/10/10 21:06:58;;;;;;;8.83;5.27;;;20.30;96.40;;;;;;4870947;29;20459;-84
2023/10/10 21:10:50;;;;;;;;;;;;;;;;;;;;;
2023/10/10 21:13:49;;;;;;;6.37;4.30;;;20.40;96.60;;;;;;4882017;29;20452;-84
2023/10/10 21:16:47;;;;;;;;;;;;;;;;;;;;;
2023/10/10 21:23:47;;;;;;;5.00;4.00;;;20.30;96.10;;;;;;4988258;28;20523;-85
2023/10/10 21:30:12;;;;;;;5.83;3.60;;;20.50;95.10;;;;;;4908798;29;20473;-83
2023/10/10 21:34:02;;;;;;;6.60;4.20;;;20.50;94.40;;;;;;4905698;29;20562;-85
2023/10/10 21:37:55;;;;;;;8.03;4.33;;;20.30;94.40;;;;;;4790038;29;20453;-84
2023/10/10 21:41:16;;;;;;;7.27;4.00;;;20.40;94.30;;;;;;4856597;29;20492;-84
2023/10/10 21:45:10;;;;;;;;;;;;;;;;;;;;;
2023/10/10 21:48:21;;;;;;;7.10;4.63;;;20.30;94.30;;;;;;4856043;29;20602;-82
2023/10/10 21:55:06;;;;;;;7.00;4.50;;;20.20;94.30;;;;;;4937574;28;20473;-86
2023/10/10 21:58:31;;;;;;;;;;;;;;;;;;;;;
2023/10/10 22:09:00;;;;;;;6.87;4.17;;;19.80;96.20;;;;;;4830690;29;20468;-84
2023/10/10 22:11:44;;;;;;;5.43;4.20;;;20.00;95.40;;;;;;4824879;29;20466;-84
2023/10/10 22:14:52;;;;;;;7.63;4.60;;;20.00;95.10;;;;;;4859621;28;20434;-84
2023/10/10 22:17:56;;;;;;;6.27;4.57;;;20.10;95.10;;;;;;4955075;28;21034;-86
2023/10/10 22:20:49;;;;;;;8.67;5.13;;;20.00;94.80;;;;;;4925568;28;20566;-83
2023/10/10 22:23:37;;;;;;;7.33;4.50;;;20.00;94.60;;;;;;4954418;28;20506;-85
2023/10/10 22:29:33;;;;;;;6.00;4.87;;;19.90;94.60;;;;;;5078148;23;20479;-86
2023/10/10 22:32:47;;;;;;;10.00;4.57;;;19.70;94.70;;;;;;4959138;28;20445;-85
2023/10/10 22:35:42;;;;;;;7.60;4.33;;;19.50;95.40;;;;;;4964053;28;20437;-85
2023/10/10 22:38:23;;;;;;;5.30;4.80;;;19.60;96.10;;;;;;4946853;28;20554;-84
2023/10/10 22:41:34;;;;;;;7.07;4.60;;;19.40;96.20;;;;;;4937673;29;20508;-82
2023/10/10 22:44:50;;;;;;;6.40;4.10;;;19.30;96.70;;;;;;4928889;29;20449;-83
2023/10/10 22:50:56;;;;;;;6.57;4.70;;;19.40;96.90;;;;;;5011432;23;21218;-84
2023/10/10 22:53:55;;;;;;;6.20;4.50;;;19.30;97.00;;;;;;4966211;28;20451;-83
2023/10/10 22:56:27;;;;;;;6.90;4.30;;;19.30;97.40;;;;;;4963064;28;20498;-84
2023/10/10 23:00:13;;;;;;;5.40;4.47;;;19.30;97.40;;;;;;4958883;28;20459;-87
2023/10/10 23:07:09;;;;;;;9.07;4.63;;;19.30;97.40;;;;;;4933304;29;20461;-85
2023/10/10 23:10:26;;;;;;;7.13;4.23;;;19.30;97.80;;;;;;4917825;28;20474;-85
2023/10/10 23:12:57;;;;;;;5.80;4.50;;;19.20;98.10;;;;;;4951733;28;20472;-85
2023/10/10 23:15:50;;;;;;;6.50;4.37;;;19.20;98.30;;;;;;4969156;28;20463;-84
2023/10/10 23:19:12;;;;;;;5.03;4.53;;;19.30;98.30;;;;;;4935934;28;20506;-84
2023/10/10 23:22:07;;;;;;;6.97;4.17;;;19.20;98.10;;;;;;4938884;28;20547;-85
2023/10/10 23:25:17;;;;;;;5.10;4.60;;;19.20;98.60;;;;;;4954302;28;20520;-85
2023/10/10 23:31:39;;;;;;;5.83;4.13;;;19.00;99.00;;;;;;4891020;29;20529;-86
2023/10/10 23:35:02;;;;;;;5.50;4.87;;;19.00;98.90;;;;;;4933621;28;20440;-83
2023/10/10 23:38:08;;;;;;;7.33;4.37;;;19.00;99.00;;;;;;4957515;28;20961;-84
2023/10/10 23:41:04;;;;;;;6.13;4.80;;;19.10;98.30;;;;;;4942840;28;20459;-84
2023/10/10 23:44:13;;;;;;;5.23;4.23;;;19.00;98.40;;;;;;4948397;28;21802;-86
2023/10/10 23:51:25;;;;;;;;;;;;;;;;;;;;;
2023/10/10 23:54:22;;;;;;;10.57;4.53;;;19.50;95.80;;;;;;4944706;28;20547;-83
2023/10/10 23:57:45;;;;;;;7.73;4.03;;;19.50;95.70;;;;;;4945016;28;20457;-86
